Time;durP1;ratioP1;P1;durP2;ratioP2;P2;SDS_P1;SDS_P2;PMS_P1;PMS_P2;Temp;Humidity;BMP_temperature;BMP_pressure;BME280_temperature;BME280_humidity;BME280_pressure;Samples;Min_cycle;Max_cycle;Signal;HPM_P1;HPM_P2
2022/02/23 00:01:32;;;;;;;2.33;2.12;;;;;;;;;;143730;572;46020;-65
2022/02/23 00:04:00;;;;;;;3.17;2.87;;;;;;;;;;143728;570;46020;-65
2022/02/23 00:06:27;;;;;;;2.85;2.40;;;;;;;;;;143725;633;46034;-65
2022/02/23 00:08:55;;;;;;;3.40;3.10;;;;;;;;;;143728;611;45021;-65
2022/02/23 00:11:22;;;;;;;2.60;2.40;;;;;;;;;;143728;570;46020;-65
2022/02/23 00:13:49;;;;;;;4.60;2.95;;;;;;;;;;143725;645;46020;-65
2022/02/23 00:16:16;;;;;;;3.20;2.90;;;;;;;;;;143725;597;46012;-65
2022/02/23 00:18:43;;;;;;;4.55;2.97;;;;;;;;;;143729;565;45021;-65
2022/02/23 00:21:10;;;;;;;3.53;3.03;;;;;;;;;;143727;619;46020;-65
2022/02/23 00:23:37;;;;;;;3.37;2.47;;;;;;;;;;143727;578;46021;-65
2022/02/23 00:26:04;;;;;;;3.05;2.85;;;;;;;;;;143725;579;46012;-65
2022/02/23 00:28:31;;;;;;;2.70;2.42;;;;;;;;;;143729;577;45020;-65
2022/02/23 00:30:58;;;;;;;5.45;2.80;;;;;;;;;;143728;585;46021;-65
2022/02/23 00:33:25;;;;;;;2.22;2.03;;;;;;;;;;143726;620;46021;-65
2022/02/23 00:35:52;;;;;;;2.55;2.30;;;;;;;;;;143725;595;46012;-65
2022/02/23 00:38:19;;;;;;;4.35;2.67;;;;;;;;;;143730;564;45021;-65
2022/02/23 00:40:46;;;;;;;5.62;3.60;;;;;;;;;;143728;577;46021;-65
2022/02/23 00:43:13;;;;;;;2.78;2.53;;;;;;;;;;143726;591;46020;-65
2022/02/23 00:45:40;;;;;;;3.60;2.90;;;;;;;;;;143725;615;46013;-66
2022/02/23 00:48:07;;;;;;;2.97;2.78;;;;;;;;;;143728;652;45021;-66
2022/02/23 00:50:35;;;;;;;3.35;2.62;;;;;;;;;;143729;610;46020;-65
2022/02/23 00:53:02;;;;;;;3.72;2.85;;;;;;;;;;143727;581;46021;-65
2022/02/23 00:55:29;;;;;;;3.87;3.12;;;;;;;;;;143725;616;46012;-65
2022/02/23 00:57:56;;;;;;;4.65;3.35;;;;;;;;;;143729;653;45020;-66
2022/02/23 01:00:23;;;;;;;4.20;3.30;;;;;;;;;;143728;591;46020;-65
2022/02/23 01:02:50;;;;;;;3.53;2.75;;;;;;;;;;143726;589;46021;-66
2022/02/23 01:05:17;;;;;;;4.22;3.45;;;;;;;;;;143725;625;46012;-66
2022/02/23 01:07:44;;;;;;;2.83;2.62;;;;;;;;;;143729;665;45020;-66
2022/02/23 01:10:11;;;;;;;3.37;2.85;;;;;;;;;;143728;656;46021;-66
2022/02/23 01:12:39;;;;;;;3.28;2.90;;;;;;;;;;143727;606;46020;-65
2022/02/23 01:15:07;;;;;;;3.15;2.62;;;;;;;;;;143725;622;46013;-65
2022/02/23 01:17:34;;;;;;;4.90;3.22;;;;;;;;;;143729;642;45021;-66
2022/02/23 01:20:01;;;;;;;3.12;2.83;;;;;;;;;;143729;600;46020;-65
2022/02/23 01:22:28;;;;;;;4.10;3.30;;;;;;;;;;143726;585;46021;-65
2022/02/23 01:24:55;;;;;;;3.47;3.17;;;;;;;;;;143726;584;46012;-65
2022/02/23 01:27:22;;;;;;;3.83;3.08;;;;;;;;;;143728;569;45042;-66
2022/02/23 01:29:49;;;;;;;3.85;3.35;;;;;;;;;;143728;604;46020;-65
2022/02/23 01:32:17;;;;;;;3.95;3.25;;;;;;;;;;143728;565;46020;-65
2022/02/23 01:34:44;;;;;;;4.55;3.45;;;;;;;;;;143724;593;46012;-65
2022/02/23 01:37:12;;;;;;;3.95;3.33;;;;;;;;;;143728;564;45020;-65
2022/02/23 01:39:39;;;;;;;4.25;3.45;;;;;;;;;;143728;573;46021;-65
2022/02/23 01:42:06;;;;;;;4.00;3.30;;;;;;;;;;143726;565;46020;-66
2022/02/23 01:44:33;;;;;;;7.93;3.37;;;;;;;;;;143724;653;46012;-66
2022/02/23 01:47:00;;;;;;;5.25;3.87;;;;;;;;;;143728;592;45021;-65
2022/02/23 01:49:27;;;;;;;4.10;3.10;;;;;;;;;;143728;569;46020;-66
2022/02/23 01:51:54;;;;;;;4.15;3.37;;;;;;;;;;143727;582;46020;-65
2022/02/23 01:54:21;;;;;;;4.90;3.78;;;;;;;;;;143725;597;46012;-66
2022/02/23 01:56:48;;;;;;;4.78;3.45;;;;;;;;;;143728;634;45020;-65
2022/02/23 01:59:17;;;;;;;4.03;3.47;;;;;;;;;;143729;593;46020;-65
2022/02/23 02:01:44;;;;;;;6.75;3.55;;;;;;;;;;143730;590;46030;-66
2022/02/23 02:04:11;;;;;;;4.35;3.40;;;;;;;;;;143725;612;46012;-65
2022/02/23 02:06:38;;;;;;;3.42;3.15;;;;;;;;;;143728;606;45020;-66
2022/02/23 02:09:05;;;;;;;3.58;3.22;;;;;;;;;;143730;589;46021;-66
2022/02/23 02:11:32;;;;;;;5.18;3.20;;;;;;;;;;143727;625;46020;-66
2022/02/23 02:13:59;;;;;;;4.60;3.30;;;;;;;;;;143725;578;46012;-65
2022/02/23 02:16:26;;;;;;;4.62;3.20;;;;;;;;;;143728;614;45021;-66
2022/02/23 02:18:53;;;;;;;3.22;2.92;;;;;;;;;;143729;569;46020;-66
2022/02/23 02:21:20;;;;;;;3.70;3.10;;;;;;;;;;143727;596;46020;-65
2022/02/23 02:23:48;;;;;;;3.40;3.10;;;;;;;;;;143725;594;46012;-66
2022/02/23 02:26:14;;;;;;;3.42;2.75;;;;;;;;;;143727;601;46014;-66
2022/02/23 02:28:41;;;;;;;3.60;3.08;;;;;;;;;;143728;584;46020;-66
2022/02/23 02:31:09;;;;;;;3.58;2.67;;;;;;;;;;143726;583;46021;-66
2022/02/23 02:33:36;;;;;;;3.30;3.00;;;;;;;;;;143725;573;46012;-66
2022/02/23 02:36:02;;;;;;;3.87;3.15;;;;;;;;;;143727;582;46014;-66
2022/02/23 02:38:29;;;;;;;4.72;2.42;;;;;;;;;;143728;570;46021;-65
2022/02/23 02:40:57;;;;;;;3.10;2.80;;;;;;;;;;143727;617;46020;-66
2022/02/23 02:43:24;;;;;;;3.60;2.55;;;;;;;;;;143725;655;46012;-66
2022/02/23 02:45:51;;;;;;;2.25;2.05;;;;;;;;;;143727;639;45911;-66
2022/02/23 02:48:18;;;;;;;3.30;2.87;;;;;;;;;;143727;590;46020;-66
2022/02/23 02:50:45;;;;;;;2.83;2.53;;;;;;;;;;143726;571;46020;-66
2022/02/23 02:53:12;;;;;;;2.72;2.53;;;;;;;;;;143723;570;47034;-66
2022/02/23 02:55:39;;;;;;;2.00;1.90;;;;;;;;;;143727;599;45908;-66
2022/02/23 02:58:06;;;;;;;2.40;2.20;;;;;;;;;;143727;630;46020;-66
2022/02/23 03:00:33;;;;;;;3.03;2.50;;;;;;;;;;143727;576;46021;-66
2022/02/23 03:03:00;;;;;;;2.60;2.37;;;;;;;;;;143725;612;46010;-66
2022/02/23 03:05:29;;;;;;;2.58;2.37;;;;;;;;;;143728;573;45020;-66
2022/02/23 03:07:56;;;;;;;2.40;2.20;;;;;;;;;;143728;593;46021;-66
2022/02/23 03:10:23;;;;;;;2.70;2.50;;;;;;;;;;143728;567;46020;-66
2022/02/23 03:12:50;;;;;;;2.78;2.58;;;;;;;;;;143724;661;46010;-66
2022/02/23 03:15:17;;;;;;;3.22;2.70;;;;;;;;;;143730;576;45021;-66
2022/02/23 03:17:43;;;;;;;4.57;2.83;;;;;;;;;;143731;617;46021;-66
2022/02/23 03:20:11;;;;;;;2.65;2.45;;;;;;;;;;143728;581;46020;-66
2022/02/23 03:22:38;;;;;;;3.05;2.47;;;;;;;;;;143726;630;46011;-67
2022/02/23 03:25:06;;;;;;;3.17;2.87;;;;;;;;;;143728;576;45021;-66
2022/02/23 03:27:33;;;;;;;3.00;2.70;;;;;;;;;;143730;603;45020;-66
2022/02/23 03:30:00;;;;;;;3.15;2.95;;;;;;;;;;143727;628;46021;-66
2022/02/23 03:32:27;;;;;;;5.07;3.40;;;;;;;;;;143726;572;46010;-66
2022/02/23 03:34:54;;;;;;;3.83;3.03;;;;;;;;;;143729;648;45020;-66
2022/02/23 03:37:21;;;;;;;7.07;2.95;;;;;;;;;;143731;593;46020;-66
2022/02/23 03:39:49;;;;;;;3.80;3.00;;;;;;;;;;143729;566;46020;-66
2022/02/23 03:42:17;;;;;;;3.00;2.55;;;;;;;;;;143728;595;46010;-66
2022/02/23 03:44:44;;;;;;;5.97;3.20;;;;;;;;;;143728;577;45021;-66
2022/02/23 03:47:11;;;;;;;3.75;3.20;;;;;;;;;;143731;578;46020;-66
2022/02/23 03:49:38;;;;;;;3.53;2.92;;;;;;;;;;143726;622;46020;-66
2022/02/23 03:52:05;;;;;;;3.37;2.97;;;;;;;;;;143725;584;46011;-67
2022/02/23 03:54:32;;;;;;;4.40;3.62;;;;;;;;;;143728;603;45021;-66
2022/02/23 03:56:59;;;;;;;4.68;3.60;;;;;;;;;;143729;570;46020;-66
2022/02/23 03:59:27;;;;;;;3.37;3.08;;;;;;;;;;143728;625;46021;-66
2022/02/23 04:01:54;;;;;;;6.50;3.30;;;;;;;;;;143725;570;47010;-67
2022/02/23 04:04:22;;;;;;;5.53;3.60;;;;;;;;;;143729;576;45020;-66
2022/02/23 04:06:50;;;;;;;3.30;3.00;;;;;;;;;;143728;564;46020;-66
2022/02/23 04:09:17;;;;;;;3.35;3.05;;;;;;;;;;143729;564;46020;-67
2022/02/23 04:11:44;;;;;;;3.62;3.00;;;;;;;;;;143725;615;47010;-67
2022/02/23 04:14:11;;;;;;;4.85;3.72;;;;;;;;;;143729;660;46014;-67
2022/02/23 04:16:38;;;;;;;5.50;3.60;;;;;;;;;;143730;650;46021;-67
2022/02/23 04:19:06;;;;;;;4.30;3.50;;;;;;;;;;143729;634;46036;-66
2022/02/23 04:21:33;;;;;;;5.20;3.83;;;;;;;;;;143727;581;46023;-67
2022/02/23 04:23:59;;;;;;;3.62;3.33;;;;;;;;;;143726;609;45019;-66
2022/02/23 04:26:27;;;;;;;3.97;3.58;;;;;;;;;;143730;590;46022;-66
2022/02/23 04:28:53;;;;;;;3.85;3.22;;;;;;;;;;143728;606;46020;-67
2022/02/23 04:31:20;;;;;;;3.92;3.50;;;;;;;;;;143727;645;46010;-67
2022/02/23 04:33:47;;;;;;;4.68;3.55;;;;;;;;;;143730;603;45018;-67
2022/02/23 04:36:14;;;;;;;4.68;3.87;;;;;;;;;;143729;609;46023;-67
2022/02/23 04:38:42;;;;;;;3.33;3.00;;;;;;;;;;143728;679;46018;-67
2022/02/23 04:41:09;;;;;;;6.55;3.97;;;;;;;;;;143726;569;46010;-67
2022/02/23 04:43:36;;;;;;;5.45;4.35;;;;;;;;;;143730;646;45019;-67
2022/02/23 04:46:06;;;;;;;5.32;4.28;;;;;;;;;;143730;572;46023;-66
2022/02/23 04:48:33;;;;;;;5.70;4.40;;;;;;;;;;143727;600;46018;-66
2022/02/23 04:51:00;;;;;;;5.00;3.87;;;;;;;;;;143726;567;46011;-66
2022/02/23 04:53:27;;;;;;;5.75;4.45;;;;;;;;;;143730;668;45019;-67
2022/02/23 04:55:54;;;;;;;5.82;3.47;;;;;;;;;;143729;566;46022;-66
2022/02/23 04:58:21;;;;;;;2.80;2.60;;;;;;;;;;143728;587;46018;-67
2022/02/23 05:00:48;;;;;;;4.22;3.83;;;;;;;;;;143726;592;46022;-66
2022/02/23 05:03:16;;;;;;;6.70;3.97;;;;;;;;;;143730;578;45908;-67
2022/02/23 05:05:45;;;;;;;6.45;3.80;;;;;;;;;;143730;584;46023;-67
2022/02/23 05:08:15;;;;;;;5.82;3.90;;;;;;;;;;143729;587;46018;-67
2022/02/23 05:10:44;;;;;;;5.12;4.00;;;;;;;;;;143727;595;46010;-67
2022/02/23 05:13:11;;;;;;;5.12;3.95;;;;;;;;;;143730;578;45019;-67
2022/02/23 05:15:38;;;;;;;4.78;3.90;;;;;;;;;;143730;615;46023;-67
2022/02/23 05:18:08;;;;;;;4.20;3.37;;;;;;;;;;143728;569;46018;-67
2022/02/23 05:20:36;;;;;;;4.70;3.80;;;;;;;;;;143727;570;46011;-67
2022/02/23 05:23:05;;;;;;;4.45;3.75;;;;;;;;;;143730;589;45019;-67
2022/02/23 05:25:33;;;;;;;7.85;3.30;;;;;;;;;;143730;595;46022;-67
2022/02/23 05:28:00;;;;;;;3.72;3.28;;;;;;;;;;143729;577;46019;-66
2022/02/23 05:30:27;;;;;;;4.65;3.62;;;;;;;;;;143727;569;46011;-66
2022/02/23 05:32:54;;;;;;;5.28;3.90;;;;;;;;;;143730;591;45018;-67
2022/02/23 05:35:21;;;;;;;4.68;3.58;;;;;;;;;;143731;596;46022;-67
2022/02/23 05:37:49;;;;;;;7.40;4.55;;;;;;;;;;143729;651;46019;-67
2022/02/23 05:40:16;;;;;;;5.37;3.72;;;;;;;;;;143725;615;46022;-67
2022/02/23 05:42:43;;;;;;;6.32;3.67;;;;;;;;;;143730;592;45018;-67
2022/02/23 05:45:10;;;;;;;6.78;3.92;;;;;;;;;;143730;646;46023;-67
2022/02/23 05:47:38;;;;;;;3.42;3.00;;;;;;;;;;143728;657;46020;-67
2022/02/23 05:50:05;;;;;;;5.80;3.85;;;;;;;;;;143726;570;46038;-67
2022/02/23 05:52:32;;;;;;;3.80;2.90;;;;;;;;;;143730;594;45021;-67
2022/02/23 05:55:00;;;;;;;5.78;3.97;;;;;;;;;;143731;578;46020;-65
2022/02/23 05:57:27;;;;;;;7.18;4.60;;;;;;;;;;143730;573;46020;-67
2022/02/23 05:59:54;;;;;;;6.82;5.15;;;;;;;;;;143727;596;46010;-67
2022/02/23 06:02:21;;;;;;;5.22;4.28;;;;;;;;;;143731;581;45020;-67
2022/02/23 06:04:48;;;;;;;6.32;4.47;;;;;;;;;;143729;617;46020;-67
2022/02/23 06:07:16;;;;;;;5.37;4.43;;;;;;;;;;143729;585;46021;-67
2022/02/23 06:09:43;;;;;;;10.93;8.43;;;;;;;;;;143726;611;46010;-67
2022/02/23 06:12:10;;;;;;;7.93;6.68;;;;;;;;;;143731;569;45020;-67
2022/02/23 06:14:38;;;;;;;5.50;4.22;;;;;;;;;;143730;609;46021;-67
2022/02/23 06:17:05;;;;;;;5.28;3.75;;;;;;;;;;143727;570;46020;-67
2022/02/23 06:19:32;;;;;;;5.05;3.90;;;;;;;;;;143727;612;46010;-67
2022/02/23 06:21:59;;;;;;;4.60;3.97;;;;;;;;;;143729;591;45021;-67
2022/02/23 06:24:26;;;;;;;5.03;3.83;;;;;;;;;;143730;589;46020;-67
2022/02/23 06:26:53;;;;;;;3.92;3.53;;;;;;;;;;143729;605;46020;-67
2022/02/23 06:29:21;;;;;;;5.65;4.30;;;;;;;;;;143727;587;46010;-67
2022/02/23 06:32:07;;;;;;;5.53;4.18;;;;;;;;;;143731;597;45020;-67
2022/02/23 06:34:33;;;;;;;;;;;;;;;;;;143736;982;46020;-67
2022/02/23 06:37:02;;;;;;;6.93;4.70;;;;;;;;;;143731;569;46021;-67
2022/02/23 06:39:34;;;;;;;7.40;4.78;;;;;;;;;;143727;625;46010;-68
2022/02/23 06:42:03;;;;;;;6.87;4.72;;;;;;;;;;143730;588;45020;-66
2022/02/23 06:44:31;;;;;;;6.20;4.70;;;;;;;;;;143729;576;46021;-67
2022/02/23 06:46:59;;;;;;;5.62;4.18;;;;;;;;;;143727;572;47020;-67
2022/02/23 06:49:27;;;;;;;6.80;4.95;;;;;;;;;;143727;570;46010;-67
2022/02/23 06:51:58;;;;;;;6.80;4.50;;;;;;;;;;143731;569;45021;-67
2022/02/23 06:54:29;;;;;;;8.75;5.30;;;;;;;;;;143729;665;47020;-67
2022/02/23 06:56:56;;;;;;;5.65;4.70;;;;;;;;;;143729;617;46020;-67
2022/02/23 06:59:23;;;;;;;5.90;4.85;;;;;;;;;;143727;581;46010;-67
2022/02/23 07:01:50;;;;;;;11.48;6.75;;;;;;;;;;143730;585;45020;-67
2022/02/23 07:04:17;;;;;;;13.90;7.97;;;;;;;;;;143730;569;46020;-66
2022/02/23 07:06:44;;;;;;;11.38;7.95;;;;;;;;;;143727;573;46021;-67
2022/02/23 07:09:11;;;;;;;18.92;11.10;;;;;;;;;;143727;574;46010;-67
2022/02/23 07:11:39;;;;;;;13.00;8.65;;;;;;;;;;143730;737;45020;-67
2022/02/23 07:14:07;;;;;;;7.75;5.25;;;;;;;;;;143729;640;46021;-67
2022/02/23 07:16:35;;;;;;;8.13;5.40;;;;;;;;;;143729;627;46020;-67
2022/02/23 07:19:02;;;;;;;8.80;5.95;;;;;;;;;;143727;601;46010;-66
2022/02/23 07:21:29;;;;;;;6.68;4.85;;;;;;;;;;143730;581;45021;-67
2022/02/23 07:23:56;;;;;;;6.40;4.95;;;;;;;;;;143730;609;46020;-66
2022/02/23 07:26:23;;;;;;;8.13;5.68;;;;;;;;;;143728;583;46020;-66
2022/02/23 07:28:50;;;;;;;6.78;5.05;;;;;;;;;;143727;597;46010;-67
2022/02/23 07:31:17;;;;;;;5.30;4.57;;;;;;;;;;143730;582;45021;-67
2022/02/23 07:33:45;;;;;;;6.93;4.95;;;;;;;;;;143729;565;45020;-66
2022/02/23 07:36:13;;;;;;;6.28;5.05;;;;;;;;;;143728;600;46022;-67
2022/02/23 07:38:41;;;;;;;5.30;4.75;;;;;;;;;;143727;664;46010;-67
2022/02/23 07:41:10;;;;;;;7.18;5.47;;;;;;;;;;143731;621;45020;-67
2022/02/23 07:43:37;;;;;;;8.57;5.62;;;;;;;;;;143731;593;46021;-68
2022/02/23 07:46:05;;;;;;;12.35;8.23;;;;;;;;;;143729;592;46020;-66
2022/02/23 07:48:33;;;;;;;6.80;5.35;;;;;;;;;;143727;619;46010;-68
2022/02/23 07:51:03;;;;;;;14.05;8.55;;;;;;;;;;143730;601;45021;-67
2022/02/23 07:53:30;;;;;;;7.50;5.57;;;;;;;;;;143730;605;46020;-67
2022/02/23 07:55:57;;;;;;;5.25;4.40;;;;;;;;;;143728;588;46020;-67
2022/02/23 07:58:25;;;;;;;7.55;5.07;;;;;;;;;;143727;632;46010;-67
2022/02/23 08:00:52;;;;;;;10.90;5.47;;;;;;;;;;143731;616;45020;-67
2022/02/23 08:03:18;;;;;;;7.50;5.82;;;;;;;;;;143731;621;46020;-67
2022/02/23 08:05:45;;;;;;;5.07;4.20;;;;;;;;;;143729;653;46021;-67
2022/02/23 08:08:13;;;;;;;6.03;4.90;;;;;;;;;;143727;566;46010;-67
2022/02/23 08:10:40;;;;;;;5.87;4.60;;;;;;;;;;143731;594;45020;-67
2022/02/23 08:13:07;;;;;;;11.73;7.25;;;;;;;;;;143731;569;46021;-68
2022/02/23 08:21:03;;;;;;;14.32;8.75;;;;;;;;;;143729;591;46021;-69
2022/02/23 08:23:30;;;;;;;7.10;4.85;;;;;;;;;;143728;647;48010;-70
2022/02/23 08:25:57;;;;;;;7.05;5.12;;;;;;;;;;143728;575;46020;-69
2022/02/23 08:28:24;;;;;;;9.85;6.10;;;;;;;;;;143727;612;46010;-69
2022/02/23 08:30:51;;;;;;;6.57;4.87;;;;;;;;;;143731;604;45021;-68
2022/02/23 08:33:18;;;;;;;6.95;4.70;;;;;;;;;;143729;564;46020;-67
2022/02/23 08:35:46;;;;;;;8.20;5.12;;;;;;;;;;143730;618;46022;-67
2022/02/23 08:38:15;;;;;;;6.97;4.40;;;;;;;;;;143726;576;46020;-68
2022/02/23 08:40:44;;;;;;;6.93;4.62;;;;;;;;;;143730;575;46012;-67
2022/02/23 08:43:13;;;;;;;7.85;4.87;;;;;;;;;;143730;617;46021;-67
2022/02/23 08:45:41;;;;;;;4.85;4.07;;;;;;;;;;143727;627;47020;-68
2022/02/23 08:48:08;;;;;;;4.93;4.00;;;;;;;;;;143726;578;46010;-68
2022/02/23 08:50:35;;;;;;;5.53;4.03;;;;;;;;;;143731;586;45021;-69
2022/02/23 08:53:03;;;;;;;5.37;4.20;;;;;;;;;;143729;600;46020;-72
2022/02/23 08:55:30;;;;;;;6.00;4.07;;;;;;;;;;143729;589;46020;-72
2022/02/23 08:57:58;;;;;;;5.12;3.90;;;;;;;;;;143727;580;46011;-72
2022/02/23 09:00:26;;;;;;;4.62;4.20;;;;;;;;;;143732;570;45020;-69
2022/02/23 09:02:53;;;;;;;6.78;4.20;;;;;;;;;;143730;607;46020;-70
2022/02/23 09:05:20;;;;;;;5.32;4.20;;;;;;;;;;143726;576;47037;-70
2022/02/23 09:07:47;;;;;;;9.90;4.47;;;;;;;;;;143725;566;47010;-69
2022/02/23 09:10:14;;;;;;;4.45;3.80;;;;;;;;;;143729;579;45020;-68
2022/02/23 09:12:43;;;;;;;4.90;4.15;;;;;;;;;;143732;577;46020;-68
2022/02/23 09:15:12;;;;;;;7.62;4.32;;;;;;;;;;143730;585;46020;-68
2022/02/23 09:17:40;;;;;;;7.05;4.20;;;;;;;;;;143727;587;46010;-67
2022/02/23 09:20:07;;;;;;;6.60;4.50;;;;;;;;;;143729;569;46019;-68
2022/02/23 09:22:34;;;;;;;7.43;5.15;;;;;;;;;;143728;597;46020;-67
2022/02/23 09:25:01;;;;;;;6.05;4.40;;;;;;;;;;143728;581;46020;-67
2022/02/23 09:27:28;;;;;;;4.80;4.18;;;;;;;;;;143726;565;46010;-67
2022/02/23 09:29:55;;;;;;;12.52;7.80;;;;;;;;;;143730;588;45021;-67
2022/02/23 09:32:22;;;;;;;6.43;4.15;;;;;;;;;;143730;587;46020;-67
2022/02/23 09:34:49;;;;;;;6.65;4.85;;;;;;;;;;143728;592;46021;-67
2022/02/23 09:37:17;;;;;;;9.80;5.22;;;;;;;;;;143724;596;46010;-66
2022/02/23 09:39:44;;;;;;;5.05;4.22;;;;;;;;;;143729;589;45020;-66
2022/02/23 09:42:11;;;;;;;7.60;4.68;;;;;;;;;;143729;579;46021;-66
2022/02/23 09:44:42;;;;;;;4.97;4.18;;;;;;;;;;143726;601;47020;-66
2022/02/23 09:47:09;;;;;;;5.15;3.70;;;;;;;;;;143724;566;46020;-66
2022/02/23 09:49:37;;;;;;;5.55;4.53;;;;;;;;;;143725;569;46011;-67
2022/02/23 09:52:04;;;;;;;4.87;4.12;;;;;;;;;;143727;629;46020;-67
2022/02/23 09:54:31;;;;;;;5.55;4.22;;;;;;;;;;143726;628;46022;-67
2022/02/23 09:56:58;;;;;;;6.53;4.50;;;;;;;;;;143725;565;46038;-66
2022/02/23 09:59:26;;;;;;;10.88;4.53;;;;;;;;;;143728;659;45019;-67
2022/02/23 10:01:54;;;;;;;9.30;4.60;;;;;;;;;;143727;625;46022;-66
2022/02/23 10:04:24;;;;;;;5.70;4.55;;;;;;;;;;143725;613;46019;-66
2022/02/23 10:06:52;;;;;;;6.65;4.70;;;;;;;;;;143725;618;46010;-66
2022/02/23 10:09:19;;;;;;;8.00;4.53;;;;;;;;;;143727;577;45908;-66
2022/02/23 10:11:48;;;;;;;5.87;4.47;;;;;;;;;;143727;644;48011;-67
2022/02/23 10:14:15;;;;;;;5.25;4.37;;;;;;;;;;143727;585;46018;-66
2022/02/23 10:16:44;;;;;;;6.00;4.47;;;;;;;;;;143724;570;46918;-66
2022/02/23 10:19:20;;;;;;;6.43;4.53;;;;;;;;;;143729;574;45019;-67
2022/02/23 10:21:56;;;;;;;7.22;4.80;;;;;;;;;;143727;639;46023;-66
2022/02/23 10:24:32;;;;;;;6.70;4.57;;;;;;;;;;143726;588;46018;-66
2022/02/23 10:27:15;;;;;;;7.43;4.03;;;;;;;;;;143725;576;46010;-66
2022/02/23 10:29:55;;;;;;;5.95;4.45;;;;;;;;;;143730;640;45019;-65
2022/02/23 10:32:25;;;;;;;5.20;3.85;;;;;;;;;;143729;584;46022;-66
2022/02/23 10:34:55;;;;;;;7.15;4.05;;;;;;;;;;143727;688;46019;-66
2022/02/23 10:37:24;;;;;;;7.50;4.20;;;;;;;;;;143724;637;46022;-66
2022/02/23 10:40:00;;;;;;;5.28;4.15;;;;;;;;;;143730;586;45018;-66
2022/02/23 10:42:33;;;;;;;5.70;4.25;;;;;;;;;;143726;707;46023;-66
2022/02/23 10:45:04;;;;;;;7.43;4.40;;;;;;;;;;143727;582;46018;-66
2022/02/23 10:47:33;;;;;;;6.60;4.50;;;;;;;;;;143724;590;46010;-67
2022/02/23 10:50:12;;;;;;;6.97;4.10;;;;;;;;;;143729;570;45019;-66
2022/02/23 10:52:44;;;;;;;5.82;4.25;;;;;;;;;;143728;671;46022;-66
2022/02/23 10:55:21;;;;;;;7.60;4.20;;;;;;;;;;143727;578;46018;-66
2022/02/23 10:57:54;;;;;;;6.37;4.68;;;;;;;;;;143727;574;46010;-66
2022/02/23 11:00:24;;;;;;;6.55;4.12;;;;;;;;;;143729;571;45018;-66
2022/02/23 11:02:52;;;;;;;6.35;3.97;;;;;;;;;;143729;597;46022;-66
2022/02/23 11:05:26;;;;;;;6.05;4.25;;;;;;;;;;143726;573;46020;-66
2022/02/23 11:07:55;;;;;;;5.75;4.18;;;;;;;;;;143725;579;46012;-66
2022/02/23 11:10:23;;;;;;;6.75;4.15;;;;;;;;;;143727;595;46010;-66
2022/02/23 11:12:52;;;;;;;5.05;4.05;;;;;;;;;;143727;564;46023;-66
2022/02/23 11:15:24;;;;;;;6.95;4.35;;;;;;;;;;143727;591;46018;-66
2022/02/23 11:17:54;;;;;;;11.60;4.18;;;;;;;;;;143725;585;46010;-66
2022/02/23 11:20:24;;;;;;;6.60;4.75;;;;;;;;;;143729;610;45019;-66
2022/02/23 11:22:59;;;;;;;5.37;4.18;;;;;;;;;;143728;613;46022;-66
2022/02/23 11:25:32;;;;;;;8.90;4.87;;;;;;;;;;143727;707;46018;-66
2022/02/23 11:28:32;;;;;;;5.60;4.70;;;;;;;;;;143725;609;46010;-66
2022/02/23 11:31:11;;;;;;;7.75;4.57;;;;;;;;;;143729;567;45020;-66
2022/02/23 11:34:12;;;;;;;6.87;4.50;;;;;;;;;;143727;576;46022;-66
2022/02/23 11:36:47;;;;;;;6.20;4.65;;;;;;;;;;143727;634;46023;-66
2022/02/23 11:39:16;;;;;;;9.38;4.95;;;;;;;;;;143725;600;46010;-66
2022/02/23 11:41:46;;;;;;;6.57;5.03;;;;;;;;;;143726;605;45030;-66
2022/02/23 11:44:16;;;;;;;8.55;5.30;;;;;;;;;;143729;577;46022;-66
2022/02/23 11:47:17;;;;;;;6.35;5.10;;;;;;;;;;143724;579;47018;-66
2022/02/23 11:49:56;;;;;;;7.95;5.72;;;;;;;;;;143725;619;46010;-67
2022/02/23 11:52:27;;;;;;;8.40;5.25;;;;;;;;;;143727;580;46010;-67
2022/02/23 11:55:28;;;;;;;7.20;5.25;;;;;;;;;;143727;595;46012;-66
2022/02/23 11:57:59;;;;;;;10.85;5.22;;;;;;;;;;143726;571;46019;-66
2022/02/23 12:01:11;;;;;;;8.75;5.03;;;;;;;;;;143725;573;46010;-67
2022/02/23 12:03:37;;;;;;;7.80;4.87;;;;;;;;;;143726;642;46010;-66
2022/02/23 12:06:12;;;;;;;7.15;5.43;;;;;;;;;;143730;615;46022;-66
2022/02/23 12:08:43;;;;;;;8.27;5.75;;;;;;;;;;143726;679;46018;-67
2022/02/23 12:11:40;;;;;;;6.68;5.37;;;;;;;;;;143725;648;46010;-66
2022/02/23 12:14:07;;;;;;;8.23;4.95;;;;;;;;;;143725;564;46020;-66
2022/02/23 12:16:52;;;;;;;7.50;4.85;;;;;;;;;;143727;597;46022;-67
2022/02/23 12:19:42;;;;;;;16.47;5.50;;;;;;;;;;143727;627;46019;-67
2022/02/23 12:22:09;;;;;;;6.15;4.80;;;;;;;;;;143724;624;46012;-66
2022/02/23 12:24:43;;;;;;;6.82;5.20;;;;;;;;;;143729;615;45020;-67
2022/02/23 12:27:11;;;;;;;9.73;5.23;;;;;;;;;;143728;742;45021;-67
2022/02/23 12:29:38;;;;;;;6.57;4.70;;;;;;;;;;143725;619;46020;-68
2022/02/23 12:32:07;;;;;;;6.82;4.95;;;;;;;;;;143725;618;46012;-66
2022/02/23 12:34:36;;;;;;;7.22;4.78;;;;;;;;;;143728;663;45021;-67
2022/02/23 12:37:05;;;;;;;6.65;4.70;;;;;;;;;;143727;588;46020;-67
2022/02/23 12:39:35;;;;;;;7.10;4.93;;;;;;;;;;143726;598;46022;-67
2022/02/23 12:42:06;;;;;;;6.85;4.80;;;;;;;;;;143725;580;46012;-68
2022/02/23 12:44:37;;;;;;;8.60;5.45;;;;;;;;;;143730;658;45020;-67
2022/02/23 12:47:06;;;;;;;8.23;5.60;;;;;;;;;;143730;573;46020;-67
2022/02/23 12:49:33;;;;;;;10.13;5.20;;;;;;;;;;143726;572;46023;-67
2022/02/23 12:52:01;;;;;;;9.50;6.53;;;;;;;;;;143723;570;46012;-66
2022/02/23 12:54:32;;;;;;;7.97;5.78;;;;;;;;;;143729;590;45020;-67
2022/02/23 12:57:00;;;;;;;8.38;5.32;;;;;;;;;;143730;586;46021;-67
2022/02/23 12:59:32;;;;;;;10.88;5.20;;;;;;;;;;143725;566;46027;-67
2022/02/23 13:02:02;;;;;;;11.12;5.78;;;;;;;;;;143725;573;46012;-66
2022/02/23 13:04:37;;;;;;;7.90;5.47;;;;;;;;;;143729;655;45021;-66
2022/02/23 13:07:07;;;;;;;7.80;5.28;;;;;;;;;;143727;564;46020;-66
2022/02/23 13:09:37;;;;;;;8.48;4.80;;;;;;;;;;143726;600;46020;-66
2022/02/23 13:12:06;;;;;;;6.72;5.18;;;;;;;;;;143725;588;46013;-67
2022/02/23 13:14:36;;;;;;;7.07;4.72;;;;;;;;;;143728;591;45020;-66
2022/02/23 13:17:07;;;;;;;6.25;4.78;;;;;;;;;;143726;640;46020;-66
2022/02/23 13:19:36;;;;;;;7.57;5.15;;;;;;;;;;143730;668;46020;-66
2022/02/23 13:22:08;;;;;;;8.02;4.95;;;;;;;;;;143726;585;46012;-67
2022/02/23 13:24:41;;;;;;;9.43;5.50;;;;;;;;;;143727;592;45020;-67
2022/02/23 13:27:22;;;;;;;8.15;5.72;;;;;;;;;;143728;569;46021;-67
2022/02/23 13:30:08;;;;;;;7.70;4.90;;;;;;;;;;143724;566;46020;-66
2022/02/23 13:32:37;;;;;;;9.13;5.37;;;;;;;;;;143725;602;46012;-67
2022/02/23 13:35:08;;;;;;;8.32;6.18;;;;;;;;;;143730;579;45021;-67
2022/02/23 13:37:40;;;;;;;6.62;4.80;;;;;;;;;;143727;630;46020;-66
2022/02/23 13:40:17;;;;;;;7.12;5.35;;;;;;;;;;143724;564;46021;-67
2022/02/23 13:42:47;;;;;;;8.43;4.78;;;;;;;;;;143725;634;46012;-66
2022/02/23 13:45:28;;;;;;;6.30;4.90;;;;;;;;;;143729;591;45020;-66
2022/02/23 13:48:06;;;;;;;7.15;5.03;;;;;;;;;;143728;652;46021;-66
2022/02/23 13:50:39;;;;;;;7.22;5.22;;;;;;;;;;143726;613;46023;-67
2022/02/23 13:53:14;;;;;;;7.93;4.80;;;;;;;;;;143725;590;46012;-66
2022/02/23 13:55:50;;;;;;;9.13;5.95;;;;;;;;;;143728;658;45021;-66
2022/02/23 13:58:20;;;;;;;8.38;5.28;;;;;;;;;;143729;565;46020;-66
2022/02/23 14:00:53;;;;;;;7.10;5.05;;;;;;;;;;143725;582;47020;-66
2022/02/23 14:03:35;;;;;;;6.00;4.53;;;;;;;;;;143725;569;46013;-66
2022/02/23 14:06:16;;;;;;;9.25;5.07;;;;;;;;;;143727;640;46018;-66
2022/02/23 14:08:47;;;;;;;10.25;5.97;;;;;;;;;;143729;663;46020;-66
2022/02/23 14:11:20;;;;;;;6.15;4.75;;;;;;;;;;143725;710;46021;-67
2022/02/23 14:13:50;;;;;;;7.65;5.03;;;;;;;;;;143725;579;46012;-67
2022/02/23 14:16:31;;;;;;;7.30;5.60;;;;;;;;;;143729;563;45020;-66
2022/02/23 14:18:58;;;;;;;8.82;5.22;;;;;;;;;;143726;564;46021;-66
2022/02/23 14:21:26;;;;;;;7.70;5.55;;;;;;;;;;143726;639;46020;-66
2022/02/23 14:24:02;;;;;;;9.25;5.82;;;;;;;;;;143727;583;46012;-67
2022/02/23 14:26:29;;;;;;;10.20;6.35;;;;;;;;;;143728;623;45021;-66
2022/02/23 14:28:58;;;;;;;7.85;5.70;;;;;;;;;;143728;668;46020;-67
2022/02/23 14:31:33;;;;;;;9.95;5.57;;;;;;;;;;143725;563;46022;-66
2022/02/23 14:34:21;;;;;;;6.80;5.23;;;;;;;;;;143725;579;46012;-66
2022/02/23 14:36:50;;;;;;;8.10;6.40;;;;;;;;;;143728;566;45020;-66
2022/02/23 14:39:18;;;;;;;8.50;5.45;;;;;;;;;;143729;604;46020;-67
2022/02/23 14:41:45;;;;;;;8.40;6.10;;;;;;;;;;143727;630;46020;-67
2022/02/23 14:44:13;;;;;;;9.77;6.22;;;;;;;;;;143725;643;46012;-66
2022/02/23 14:46:41;;;;;;;10.95;5.97;;;;;;;;;;143729;595;45020;-66
2022/02/23 14:49:09;;;;;;;14.23;6.78;;;;;;;;;;143727;614;46021;-66
2022/02/23 14:51:36;;;;;;;7.65;5.60;;;;;;;;;;143727;581;46022;-67
2022/02/23 14:54:03;;;;;;;7.85;6.12;;;;;;;;;;143724;626;46012;-67
2022/02/23 14:56:30;;;;;;;13.98;6.57;;;;;;;;;;143728;582;46041;-67
2022/02/23 14:58:57;;;;;;;9.73;6.25;;;;;;;;;;143730;570;46020;-66
2022/02/23 15:01:26;;;;;;;7.93;6.07;;;;;;;;;;143725;569;47020;-67